sensor_id;sensor_type;location;lat;lon;timestamp;P1;durP1;ratioP1;P2;durP2;ratioP2
20844;SDS011;10583;49.084;8.646;2022-07-29T00:00:36;3.63;;;3.63;;
20844;SDS011;10583;49.084;8.646;2022-07-29T00:03:03;3.63;;;3.63;;
20844;SDS011;10583;49.084;8.646;2022-07-29T00:05:30;3.30;;;3.30;;
20844;SDS011;10583;49.084;8.646;2022-07-29T00:07:58;3.42;;;3.42;;
20844;SDS011;10583;49.084;8.646;2022-07-29T00:10:25;3.58;;;3.58;;
20844;SDS011;10583;49.084;8.646;2022-07-29T00:12:51;3.28;;;3.28;;
20844;SDS011;10583;49.084;8.646;2022-07-29T00:15:18;3.80;;;3.80;;
20844;SDS011;10583;49.084;8.646;2022-07-29T00:17:45;3.58;;;3.58;;
20844;SDS011;10583;49.084;8.646;2022-07-29T00:20:11;3.60;;;3.60;;
20844;SDS011;10583;49.084;8.646;2022-07-29T00:22:38;3.63;;;3.63;;
20844;SDS011;10583;49.084;8.646;2022-07-29T00:25:07;3.70;;;3.70;;
20844;SDS011;10583;49.084;8.646;2022-07-29T00:27:34;3.47;;;3.47;;
20844;SDS011;10583;49.084;8.646;2022-07-29T00:30:02;3.67;;;3.67;;
20844;SDS011;10583;49.084;8.646;2022-07-29T00:32:29;3.83;;;3.83;;
20844;SDS011;10583;49.084;8.646;2022-07-29T00:34:56;3.70;;;3.70;;
20844;SDS011;10583;49.084;8.646;2022-07-29T00:37:40;3.67;;;3.67;;
20844;SDS011;10583;49.084;8.646;2022-07-29T00:40:09;4.13;;;4.13;;
20844;SDS011;10583;49.084;8.646;2022-07-29T00:42:42;3.87;;;3.87;;
20844;SDS011;10583;49.084;8.646;2022-07-29T00:45:10;4.17;;;4.17;;
20844;SDS011;10583;49.084;8.646;2022-07-29T00:47:37;4.00;;;4.00;;
20844;SDS011;10583;49.084;8.646;2022-07-29T00:50:04;4.00;;;4.00;;
20844;SDS011;10583;49.084;8.646;2022-07-29T00:52:32;4.30;;;4.30;;
20844;SDS011;10583;49.084;8.646;2022-07-29T00:54:59;4.17;;;4.17;;
20844;SDS011;10583;49.084;8.646;2022-07-29T00:57:28;3.77;;;3.77;;
20844;SDS011;10583;49.084;8.646;2022-07-29T00:59:54;4.07;;;4.07;;
20844;SDS011;10583;49.084;8.646;2022-07-29T01:02:21;3.40;;;3.40;;
20844;SDS011;10583;49.084;8.646;2022-07-29T01:04:48;4.00;;;4.00;;
20844;SDS011;10583;49.084;8.646;2022-07-29T01:07:16;3.97;;;3.97;;
20844;SDS011;10583;49.084;8.646;2022-07-29T01:09:43;3.73;;;3.73;;
20844;SDS011;10583;49.084;8.646;2022-07-29T01:12:11;4.40;;;4.40;;
20844;SDS011;10583;49.084;8.646;2022-07-29T01:14:42;3.57;;;3.57;;
20844;SDS011;10583;49.084;8.646;2022-07-29T01:17:10;3.70;;;3.70;;
20844;SDS011;10583;49.084;8.646;2022-07-29T01:19:47;4.00;;;4.00;;
20844;SDS011;10583;49.084;8.646;2022-07-29T01:22:28;3.87;;;3.87;;
20844;SDS011;10583;49.084;8.646;2022-07-29T01:25:05;3.80;;;3.80;;
20844;SDS011;10583;49.084;8.646;2022-07-29T01:27:45;4.00;;;4.00;;
20844;SDS011;10583;49.084;8.646;2022-07-29T01:30:22;3.97;;;3.97;;
20844;SDS011;10583;49.084;8.646;2022-07-29T01:32:52;3.77;;;3.77;;
20844;SDS011;10583;49.084;8.646;2022-07-29T01:35:23;3.70;;;3.70;;
20844;SDS011;10583;49.084;8.646;2022-07-29T01:37:54;3.70;;;3.70;;
20844;SDS011;10583;49.084;8.646;2022-07-29T01:40:29;4.10;;;4.10;;
20844;SDS011;10583;49.084;8.646;2022-07-29T01:43:03;3.70;;;3.70;;
20844;SDS011;10583;49.084;8.646;2022-07-29T01:45:38;3.80;;;3.80;;
20844;SDS011;10583;49.084;8.646;2022-07-29T01:48:10;3.90;;;3.90;;
20844;SDS011;10583;49.084;8.646;2022-07-29T01:50:44;3.40;;;3.40;;
20844;SDS011;10583;49.084;8.646;2022-07-29T01:53:15;3.80;;;3.80;;
20844;SDS011;10583;49.084;8.646;2022-07-29T01:55:47;3.87;;;3.87;;
20844;SDS011;10583;49.084;8.646;2022-07-29T01:58:15;3.70;;;3.70;;
20844;SDS011;10583;49.084;8.646;2022-07-29T02:00:46;3.90;;;3.90;;
20844;SDS011;10583;49.084;8.646;2022-07-29T02:03:14;3.93;;;3.93;;
20844;SDS011;10583;49.084;8.646;2022-07-29T02:05:43;4.10;;;4.10;;
20844;SDS011;10583;49.084;8.646;2022-07-29T02:08:13;4.30;;;4.30;;
20844;SDS011;10583;49.084;8.646;2022-07-29T02:10:40;4.30;;;4.30;;
20844;SDS011;10583;49.084;8.646;2022-07-29T02:13:10;4.47;;;4.47;;
20844;SDS011;10583;49.084;8.646;2022-07-29T02:15:38;4.30;;;4.30;;
20844;SDS011;10583;49.084;8.646;2022-07-29T02:18:11;4.20;;;4.20;;
20844;SDS011;10583;49.084;8.646;2022-07-29T02:20:42;4.30;;;4.30;;
20844;SDS011;10583;49.084;8.646;2022-07-29T02:23:12;4.47;;;4.47;;
20844;SDS011;10583;49.084;8.646;2022-07-29T02:25:40;4.30;;;4.30;;
20844;SDS011;10583;49.084;8.646;2022-07-29T02:28:08;4.23;;;4.23;;
20844;SDS011;10583;49.084;8.646;2022-07-29T02:30:36;3.97;;;3.97;;
20844;SDS011;10583;49.084;8.646;2022-07-29T02:33:07;3.90;;;3.90;;
20844;SDS011;10583;49.084;8.646;2022-07-29T02:35:39;4.47;;;4.47;;
20844;SDS011;10583;49.084;8.646;2022-07-29T02:38:07;3.87;;;3.87;;
20844;SDS011;10583;49.084;8.646;2022-07-29T02:40:52;4.20;;;4.20;;
20844;SDS011;10583;49.084;8.646;2022-07-29T02:43:21;3.70;;;3.70;;
20844;SDS011;10583;49.084;8.646;2022-07-29T02:45:50;3.63;;;3.63;;
20844;SDS011;10583;49.084;8.646;2022-07-29T02:48:22;3.67;;;3.67;;
20844;SDS011;10583;49.084;8.646;2022-07-29T02:50:54;3.87;;;3.87;;
20844;SDS011;10583;49.084;8.646;2022-07-29T02:53:30;3.50;;;3.50;;
20844;SDS011;10583;49.084;8.646;2022-07-29T02:56:01;3.70;;;3.70;;
20844;SDS011;10583;49.084;8.646;2022-07-29T02:58:38;3.50;;;3.50;;
20844;SDS011;10583;49.084;8.646;2022-07-29T03:01:08;3.50;;;3.50;;
20844;SDS011;10583;49.084;8.646;2022-07-29T03:03:40;3.37;;;3.37;;
20844;SDS011;10583;49.084;8.646;2022-07-29T03:06:10;3.73;;;3.73;;
20844;SDS011;10583;49.084;8.646;2022-07-29T03:08:39;3.70;;;3.70;;
20844;SDS011;10583;49.084;8.646;2022-07-29T03:11:07;3.80;;;3.80;;
20844;SDS011;10583;49.084;8.646;2022-07-29T03:13:34;3.93;;;3.93;;
20844;SDS011;10583;49.084;8.646;2022-07-29T03:16:02;3.67;;;3.67;;
20844;SDS011;10583;49.084;8.646;2022-07-29T03:18:30;3.80;;;3.80;;
20844;SDS011;10583;49.084;8.646;2022-07-29T03:20:58;3.67;;;3.67;;
20844;SDS011;10583;49.084;8.646;2022-07-29T03:23:25;4.07;;;4.07;;
20844;SDS011;10583;49.084;8.646;2022-07-29T03:25:53;3.57;;;3.57;;
20844;SDS011;10583;49.084;8.646;2022-07-29T03:28:20;3.47;;;3.47;;
20844;SDS011;10583;49.084;8.646;2022-07-29T03:30:47;3.80;;;3.80;;
20844;SDS011;10583;49.084;8.646;2022-07-29T03:33:15;3.97;;;3.97;;
20844;SDS011;10583;49.084;8.646;2022-07-29T03:35:41;3.87;;;3.87;;
20844;SDS011;10583;49.084;8.646;2022-07-29T03:38:09;3.80;;;3.80;;
20844;SDS011;10583;49.084;8.646;2022-07-29T03:40:37;3.90;;;3.90;;
20844;SDS011;10583;49.084;8.646;2022-07-29T03:43:06;3.63;;;3.63;;
20844;SDS011;10583;49.084;8.646;2022-07-29T03:45:35;4.43;;;4.43;;
20844;SDS011;10583;49.084;8.646;2022-07-29T03:48:05;4.20;;;4.20;;
20844;SDS011;10583;49.084;8.646;2022-07-29T03:50:35;4.27;;;4.27;;
20844;SDS011;10583;49.084;8.646;2022-07-29T03:53:02;4.20;;;4.20;;
20844;SDS011;10583;49.084;8.646;2022-07-29T03:55:32;4.93;;;4.93;;
20844;SDS011;10583;49.084;8.646;2022-07-29T03:58:03;4.70;;;4.70;;
20844;SDS011;10583;49.084;8.646;2022-07-29T04:00:31;4.10;;;4.10;;
20844;SDS011;10583;49.084;8.646;2022-07-29T04:02:59;4.60;;;4.60;;
20844;SDS011;10583;49.084;8.646;2022-07-29T04:05:26;4.47;;;4.47;;
20844;SDS011;10583;49.084;8.646;2022-07-29T04:07:52;4.33;;;4.33;;
20844;SDS011;10583;49.084;8.646;2022-07-29T04:10:19;4.60;;;4.60;;
20844;SDS011;10583;49.084;8.646;2022-07-29T04:12:47;4.33;;;4.33;;
20844;SDS011;10583;49.084;8.646;2022-07-29T04:15:14;4.50;;;4.50;;
20844;SDS011;10583;49.084;8.646;2022-07-29T04:17:41;4.47;;;4.47;;
20844;SDS011;10583;49.084;8.646;2022-07-29T04:20:08;4.37;;;4.37;;
20844;SDS011;10583;49.084;8.646;2022-07-29T04:22:38;4.20;;;4.20;;
20844;SDS011;10583;49.084;8.646;2022-07-29T04:25:05;4.57;;;4.57;;
20844;SDS011;10583;49.084;8.646;2022-07-29T04:27:32;4.83;;;4.83;;
20844;SDS011;10583;49.084;8.646;2022-07-29T04:30:00;4.20;;;4.20;;
20844;SDS011;10583;49.084;8.646;2022-07-29T04:32:26;4.47;;;4.47;;
20844;SDS011;10583;49.084;8.646;2022-07-29T04:34:53;4.17;;;4.17;;
20844;SDS011;10583;49.084;8.646;2022-07-29T04:37:20;4.17;;;4.17;;
20844;SDS011;10583;49.084;8.646;2022-07-29T04:39:46;4.57;;;4.57;;
20844;SDS011;10583;49.084;8.646;2022-07-29T04:42:13;4.37;;;4.37;;
20844;SDS011;10583;49.084;8.646;2022-07-29T04:44:40;4.53;;;4.53;;
20844;SDS011;10583;49.084;8.646;2022-07-29T04:47:08;4.50;;;4.50;;
20844;SDS011;10583;49.084;8.646;2022-07-29T04:49:37;4.00;;;4.00;;
20844;SDS011;10583;49.084;8.646;2022-07-29T04:52:04;4.30;;;4.30;;
20844;SDS011;10583;49.084;8.646;2022-07-29T04:54:31;4.33;;;4.33;;
20844;SDS011;10583;49.084;8.646;2022-07-29T04:56:58;4.70;;;4.70;;
20844;SDS011;10583;49.084;8.646;2022-07-29T04:59:25;4.53;;;4.53;;
20844;SDS011;10583;49.084;8.646;2022-07-29T05:01:52;4.43;;;4.43;;
20844;SDS011;10583;49.084;8.646;2022-07-29T05:04:19;4.47;;;4.47;;
20844;SDS011;10583;49.084;8.646;2022-07-29T05:06:46;4.63;;;4.63;;
20844;SDS011;10583;49.084;8.646;2022-07-29T05:09:13;4.43;;;4.43;;
20844;SDS011;10583;49.084;8.646;2022-07-29T05:11:40;4.90;;;4.90;;
20844;SDS011;10583;49.084;8.646;2022-07-29T05:14:06;4.77;;;4.77;;
20844;SDS011;10583;49.084;8.646;2022-07-29T05:16:33;4.57;;;4.57;;
20844;SDS011;10583;49.084;8.646;2022-07-29T05:19:00;4.80;;;4.80;;
20844;SDS011;10583;49.084;8.646;2022-07-29T05:21:28;4.90;;;4.90;;
20844;SDS011;10583;49.084;8.646;2022-07-29T05:23:54;5.03;;;5.03;;
20844;SDS011;10583;49.084;8.646;2022-07-29T05:26:21;4.83;;;4.83;;
20844;SDS011;10583;49.084;8.646;2022-07-29T05:28:48;4.57;;;4.57;;
20844;SDS011;10583;49.084;8.646;2022-07-29T05:31:14;5.03;;;5.03;;
20844;SDS011;10583;49.084;8.646;2022-07-29T05:33:41;4.67;;;4.67;;
20844;SDS011;10583;49.084;8.646;2022-07-29T05:36:08;4.90;;;4.90;;
20844;SDS011;10583;49.084;8.646;2022-07-29T05:38:36;4.63;;;4.63;;
20844;SDS011;10583;49.084;8.646;2022-07-29T05:41:03;5.37;;;5.37;;
20844;SDS011;10583;49.084;8.646;2022-07-29T05:43:30;5.07;;;5.07;;
20844;SDS011;10583;49.084;8.646;2022-07-29T05:45:57;5.37;;;5.37;;
20844;SDS011;10583;49.084;8.646;2022-07-29T05:48:24;5.47;;;5.47;;
20844;SDS011;10583;49.084;8.646;2022-07-29T05:50:50;4.60;;;4.60;;
20844;SDS011;10583;49.084;8.646;2022-07-29T05:53:17;5.10;;;5.10;;
20844;SDS011;10583;49.084;8.646;2022-07-29T05:55:45;5.20;;;5.20;;
20844;SDS011;10583;49.084;8.646;2022-07-29T05:58:12;5.10;;;5.10;;
20844;SDS011;10583;49.084;8.646;2022-07-29T06:00:38;5.60;;;5.60;;
20844;SDS011;10583;49.084;8.646;2022-07-29T06:03:05;4.80;;;4.80;;
20844;SDS011;10583;49.084;8.646;2022-07-29T06:05:32;4.80;;;4.80;;
20844;SDS011;10583;49.084;8.646;2022-07-29T06:07:59;4.80;;;4.80;;
20844;SDS011;10583;49.084;8.646;2022-07-29T06:10:25;4.28;;;4.28;;
20844;SDS011;10583;49.084;8.646;2022-07-29T06:12:54;4.43;;;4.43;;
20844;SDS011;10583;49.084;8.646;2022-07-29T06:15:21;4.35;;;4.35;;
20844;SDS011;10583;49.084;8.646;2022-07-29T06:17:48;4.15;;;4.15;;
20844;SDS011;10583;49.084;8.646;2022-07-29T06:20:14;4.40;;;4.40;;
20844;SDS011;10583;49.084;8.646;2022-07-29T06:22:41;4.30;;;4.30;;
20844;SDS011;10583;49.084;8.646;2022-07-29T06:25:08;3.67;;;3.67;;
20844;SDS011;10583;49.084;8.646;2022-07-29T06:27:35;3.65;;;3.65;;
20844;SDS011;10583;49.084;8.646;2022-07-29T06:30:03;3.92;;;3.92;;
20844;SDS011;10583;49.084;8.646;2022-07-29T06:32:32;3.75;;;3.75;;
20844;SDS011;10583;49.084;8.646;2022-07-29T06:34:58;4.00;;;4.00;;
20844;SDS011;10583;49.084;8.646;2022-07-29T06:37:25;3.85;;;3.85;;
20844;SDS011;10583;49.084;8.646;2022-07-29T06:39:52;3.50;;;3.50;;
20844;SDS011;10583;49.084;8.646;2022-07-29T06:42:41;3.72;;;3.72;;
20844;SDS011;10583;49.084;8.646;2022-07-29T06:45:10;3.88;;;3.88;;
20844;SDS011;10583;49.084;8.646;2022-07-29T06:47:37;3.35;;;3.35;;
20844;SDS011;10583;49.084;8.646;2022-07-29T06:50:04;3.65;;;3.65;;
20844;SDS011;10583;49.084;8.646;2022-07-29T06:52:31;3.35;;;3.35;;
20844;SDS011;10583;49.084;8.646;2022-07-29T06:54:57;3.53;;;3.53;;
20844;SDS011;10583;49.084;8.646;2022-07-29T06:57:24;3.38;;;3.38;;
20844;SDS011;10583;49.084;8.646;2022-07-29T06:59:51;3.40;;;3.40;;
20844;SDS011;10583;49.084;8.646;2022-07-29T07:02:19;3.10;;;3.10;;
20844;SDS011;10583;49.084;8.646;2022-07-29T07:04:45;3.72;;;3.72;;
20844;SDS011;10583;49.084;8.646;2022-07-29T07:07:12;3.38;;;3.38;;
20844;SDS011;10583;49.084;8.646;2022-07-29T07:09:39;3.55;;;3.55;;
20844;SDS011;10583;49.084;8.646;2022-07-29T07:12:06;3.40;;;3.40;;
20844;SDS011;10583;49.084;8.646;2022-07-29T07:14:32;3.40;;;3.40;;
20844;SDS011;10583;49.084;8.646;2022-07-29T07:16:59;3.30;;;3.30;;
20844;SDS011;10583;49.084;8.646;2022-07-29T07:19:29;3.40;;;3.40;;
20844;SDS011;10583;49.084;8.646;2022-07-29T07:21:56;3.30;;;3.30;;
20844;SDS011;10583;49.084;8.646;2022-07-29T07:24:22;3.15;;;3.15;;
20844;SDS011;10583;49.084;8.646;2022-07-29T07:26:49;3.17;;;3.17;;
20844;SDS011;10583;49.084;8.646;2022-07-29T07:29:16;3.30;;;3.30;;
20844;SDS011;10583;49.084;8.646;2022-07-29T07:31:42;3.58;;;3.58;;
20844;SDS011;10583;49.084;8.646;2022-07-29T07:34:09;2.95;;;2.95;;
20844;SDS011;10583;49.084;8.646;2022-07-29T07:36:37;3.28;;;3.28;;
20844;SDS011;10583;49.084;8.646;2022-07-29T07:39:04;3.75;;;3.75;;
20844;SDS011;10583;49.084;8.646;2022-07-29T07:41:31;3.28;;;3.28;;
20844;SDS011;10583;49.084;8.646;2022-07-29T07:43:57;4.03;;;4.03;;
20844;SDS011;10583;49.084;8.646;2022-07-29T07:46:24;4.00;;;4.00;;
20844;SDS011;10583;49.084;8.646;2022-07-29T07:48:51;3.53;;;3.53;;
20844;SDS011;10583;49.084;8.646;2022-07-29T07:51:18;3.97;;;3.97;;
20844;SDS011;10583;49.084;8.646;2022-07-29T07:53:46;3.35;;;3.35;;
20844;SDS011;10583;49.084;8.646;2022-07-29T07:56:14;3.65;;;3.65;;
20844;SDS011;10583;49.084;8.646;2022-07-29T07:58:41;3.50;;;3.50;;
20844;SDS011;10583;49.084;8.646;2022-07-29T08:01:08;3.42;;;3.42;;
20844;SDS011;10583;49.084;8.646;2022-07-29T08:03:35;3.45;;;3.45;;
20844;SDS011;10583;49.084;8.646;2022-07-29T08:06:02;3.70;;;3.70;;
20844;SDS011;10583;49.084;8.646;2022-07-29T08:08:29;4.07;;;4.07;;
20844;SDS011;10583;49.084;8.646;2022-07-29T08:10:57;3.60;;;3.60;;
20844;SDS011;10583;49.084;8.646;2022-07-29T08:13:26;3.75;;;3.75;;
20844;SDS011;10583;49.084;8.646;2022-07-29T08:15:55;4.10;;;4.10;;
20844;SDS011;10583;49.084;8.646;2022-07-29T08:18:24;3.90;;;3.90;;
20844;SDS011;10583;49.084;8.646;2022-07-29T08:20:51;4.00;;;4.00;;
20844;SDS011;10583;49.084;8.646;2022-07-29T08:23:18;3.28;;;3.28;;
20844;SDS011;10583;49.084;8.646;2022-07-29T08:25:45;3.88;;;3.88;;
20844;SDS011;10583;49.084;8.646;2022-07-29T08:28:13;4.40;;;4.40;;
20844;SDS011;10583;49.084;8.646;2022-07-29T08:30:39;4.32;;;4.32;;
20844;SDS011;10583;49.084;8.646;2022-07-29T08:33:06;4.10;;;4.10;;
20844;SDS011;10583;49.084;8.646;2022-07-29T08:35:33;4.22;;;4.22;;
20844;SDS011;10583;49.084;8.646;2022-07-29T08:37:59;3.90;;;3.90;;
20844;SDS011;10583;49.084;8.646;2022-07-29T08:40:28;3.25;;;3.25;;
20844;SDS011;10583;49.084;8.646;2022-07-29T08:42:55;3.50;;;3.50;;
20844;SDS011;10583;49.084;8.646;2022-07-29T08:45:23;3.78;;;3.78;;
20844;SDS011;10583;49.084;8.646;2022-07-29T08:47:52;3.80;;;3.80;;
20844;SDS011;10583;49.084;8.646;2022-07-29T08:50:19;3.65;;;3.65;;
20844;SDS011;10583;49.084;8.646;2022-07-29T08:52:46;3.53;;;3.53;;
20844;SDS011;10583;49.084;8.646;2022-07-29T08:55:14;3.50;;;3.50;;
20844;SDS011;10583;49.084;8.646;2022-07-29T08:57:42;3.20;;;3.20;;
20844;SDS011;10583;49.084;8.646;2022-07-29T09:00:09;3.20;;;3.20;;
20844;SDS011;10583;49.084;8.646;2022-07-29T09:02:39;3.45;;;3.45;;
20844;SDS011;10583;49.084;8.646;2022-07-29T09:05:10;3.20;;;3.20;;
20844;SDS011;10583;49.084;8.646;2022-07-29T09:07:37;3.88;;;3.80;;
20844;SDS011;10583;49.084;8.646;2022-07-29T09:10:07;3.28;;;3.28;;
20844;SDS011;10583;49.084;8.646;2022-07-29T09:12:34;3.50;;;3.50;;
20844;SDS011;10583;49.084;8.646;2022-07-29T09:15:01;3.42;;;3.42;;
20844;SDS011;10583;49.084;8.646;2022-07-29T09:17:42;3.08;;;3.08;;
20844;SDS011;10583;49.084;8.646;2022-07-29T09:20:11;3.25;;;3.25;;
20844;SDS011;10583;49.084;8.646;2022-07-29T09:22:39;3.20;;;3.20;;
20844;SDS011;10583;49.084;8.646;2022-07-29T09:25:06;3.30;;;3.22;;
20844;SDS011;10583;49.084;8.646;2022-07-29T09:27:33;3.22;;;3.22;;
20844;SDS011;10583;49.084;8.646;2022-07-29T09:30:03;3.05;;;3.05;;
20844;SDS011;10583;49.084;8.646;2022-07-29T09:32:31;2.63;;;2.63;;
20844;SDS011;10583;49.084;8.646;2022-07-29T09:35:15;3.03;;;3.03;;
20844;SDS011;10583;49.084;8.646;2022-07-29T09:37:44;2.53;;;2.53;;
20844;SDS011;10583;49.084;8.646;2022-07-29T09:40:11;2.67;;;2.67;;
20844;SDS011;10583;49.084;8.646;2022-07-29T09:42:40;2.80;;;2.80;;
20844;SDS011;10583;49.084;8.646;2022-07-29T09:45:08;2.65;;;2.65;;
20844;SDS011;10583;49.084;8.646;2022-07-29T09:47:42;2.83;;;2.83;;
20844;SDS011;10583;49.084;8.646;2022-07-29T09:50:11;2.55;;;2.55;;
20844;SDS011;10583;49.084;8.646;2022-07-29T09:52:47;2.30;;;2.30;;
20844;SDS011;10583;49.084;8.646;2022-07-29T09:55:14;2.47;;;2.47;;
20844;SDS011;10583;49.084;8.646;2022-07-29T09:57:42;2.83;;;2.83;;
20844;SDS011;10583;49.084;8.646;2022-07-29T10:00:10;2.88;;;2.88;;
20844;SDS011;10583;49.084;8.646;2022-07-29T10:02:40;2.30;;;2.30;;
20844;SDS011;10583;49.084;8.646;2022-07-29T10:05:15;2.40;;;2.40;;
20844;SDS011;10583;49.084;8.646;2022-07-29T10:07:47;2.50;;;2.50;;
20844;SDS011;10583;49.084;8.646;2022-07-29T10:10:18;2.60;;;2.60;;
20844;SDS011;10583;49.084;8.646;2022-07-29T10:12:50;2.42;;;2.42;;
20844;SDS011;10583;49.084;8.646;2022-07-29T10:15:19;2.88;;;2.88;;
20844;SDS011;10583;49.084;8.646;2022-07-29T10:17:48;2.20;;;2.20;;
20844;SDS011;10583;49.084;8.646;2022-07-29T10:20:15;2.63;;;2.63;;
20844;SDS011;10583;49.084;8.646;2022-07-29T10:22:42;2.70;;;2.70;;
20844;SDS011;10583;49.084;8.646;2022-07-29T10:25:13;2.80;;;2.80;;
20844;SDS011;10583;49.084;8.646;2022-07-29T10:27:41;2.58;;;2.58;;
20844;SDS011;10583;49.084;8.646;2022-07-29T10:30:08;2.10;;;2.10;;
20844;SDS011;10583;49.084;8.646;2022-07-29T10:32:41;2.50;;;2.50;;
20844;SDS011;10583;49.084;8.646;2022-07-29T10:35:27;2.45;;;2.45;;
20844;SDS011;10583;49.084;8.646;2022-07-29T10:38:19;2.08;;;2.08;;
20844;SDS011;10583;49.084;8.646;2022-07-29T10:41:00;2.50;;;2.50;;
20844;SDS011;10583;49.084;8.646;2022-07-29T10:43:55;2.17;;;2.17;;
20844;SDS011;10583;49.084;8.646;2022-07-29T10:46:25;2.42;;;2.42;;
20844;SDS011;10583;49.084;8.646;2022-07-29T10:51:52;2.30;;;2.30;;
20844;SDS011;10583;49.084;8.646;2022-07-29T10:57:21;2.85;;;2.85;;
20844;SDS011;10583;49.084;8.646;2022-07-29T10:59:51;2.60;;;2.60;;
20844;SDS011;10583;49.084;8.646;2022-07-29T11:02:54;2.40;;;2.40;;
20844;SDS011;10583;49.084;8.646;2022-07-29T11:05:23;1.98;;;1.98;;
20844;SDS011;10583;49.084;8.646;2022-07-29T11:10:49;2.50;;;2.50;;
20844;SDS011;10583;49.084;8.646;2022-07-29T11:16:23;2.40;;;2.40;;
20844;SDS011;10583;49.084;8.646;2022-07-29T11:21:45;2.80;;;2.80;;
20844;SDS011;10583;49.084;8.646;2022-07-29T11:24:15;2.63;;;2.63;;
20844;SDS011;10583;49.084;8.646;2022-07-29T11:26:43;2.72;;;2.72;;
20844;SDS011;10583;49.084;8.646;2022-07-29T11:29:18;2.28;;;2.28;;
20844;SDS011;10583;49.084;8.646;2022-07-29T11:31:48;2.50;;;2.50;;
20844;SDS011;10583;49.084;8.646;2022-07-29T11:34:20;2.58;;;2.58;;
20844;SDS011;10583;49.084;8.646;2022-07-29T11:39:44;2.60;;;2.60;;
20844;SDS011;10583;49.084;8.646;2022-07-29T11:45:06;2.22;;;2.22;;
20844;SDS011;10583;49.084;8.646;2022-07-29T11:47:36;2.30;;;2.30;;
20844;SDS011;10583;49.084;8.646;2022-07-29T11:50:05;2.47;;;2.47;;
20844;SDS011;10583;49.084;8.646;2022-07-29T11:52:33;2.50;;;2.50;;
20844;SDS011;10583;49.084;8.646;2022-07-29T11:55:03;2.80;;;2.80;;
20844;SDS011;10583;49.084;8.646;2022-07-29T11:57:31;2.30;;;2.30;;
20844;SDS011;10583;49.084;8.646;2022-07-29T11:59:59;2.30;;;2.30;;
20844;SDS011;10583;49.084;8.646;2022-07-29T12:02:39;2.35;;;2.35;;
20844;SDS011;10583;49.084;8.646;2022-07-29T12:05:07;2.42;;;2.42;;
20844;SDS011;10583;49.084;8.646;2022-07-29T12:07:35;2.70;;;2.70;;
20844;SDS011;10583;49.084;8.646;2022-07-29T12:10:03;2.40;;;2.40;;
20844;SDS011;10583;49.084;8.646;2022-07-29T12:12:30;2.95;;;2.95;;
20844;SDS011;10583;49.084;8.646;2022-07-29T12:14:57;2.80;;;2.80;;
20844;SDS011;10583;49.084;8.646;2022-07-29T12:17:27;3.20;;;3.20;;
20844;SDS011;10583;49.084;8.646;2022-07-29T12:19:58;2.63;;;2.63;;
20844;SDS011;10583;49.084;8.646;2022-07-29T12:22:26;2.92;;;2.92;;
20844;SDS011;10583;49.084;8.646;2022-07-29T12:24:54;2.80;;;2.80;;
20844;SDS011;10583;49.084;8.646;2022-07-29T12:27:22;2.97;;;2.97;;
20844;SDS011;10583;49.084;8.646;2022-07-29T12:29:55;2.78;;;2.78;;
20844;SDS011;10583;49.084;8.646;2022-07-29T12:32:22;2.67;;;2.67;;
20844;SDS011;10583;49.084;8.646;2022-07-29T12:34:49;2.50;;;2.50;;
20844;SDS011;10583;49.084;8.646;2022-07-29T12:37:18;2.85;;;2.85;;
20844;SDS011;10583;49.084;8.646;2022-07-29T12:39:45;2.67;;;2.67;;
20844;SDS011;10583;49.084;8.646;2022-07-29T12:42:12;2.70;;;2.70;;
20844;SDS011;10583;49.084;8.646;2022-07-29T12:44:43;3.10;;;3.10;;
20844;SDS011;10583;49.084;8.646;2022-07-29T12:47:11;2.63;;;2.63;;
20844;SDS011;10583;49.084;8.646;2022-07-29T12:49:38;2.50;;;2.50;;
20844;SDS011;10583;49.084;8.646;2022-07-29T12:54:50;2.60;;;2.60;;
20844;SDS011;10583;49.084;8.646;2022-07-29T12:57:17;2.63;;;2.63;;
20844;SDS011;10583;49.084;8.646;2022-07-29T12:59:44;2.90;;;2.90;;
20844;SDS011;10583;49.084;8.646;2022-07-29T13:02:19;2.60;;;2.60;;
20844;SDS011;10583;49.084;8.646;2022-07-29T13:04:54;2.60;;;2.60;;
20844;SDS011;10583;49.084;8.646;2022-07-29T13:07:24;2.70;;;2.70;;
20844;SDS011;10583;49.084;8.646;2022-07-29T13:09:54;2.60;;;2.60;;
20844;SDS011;10583;49.084;8.646;2022-07-29T13:12:35;2.65;;;2.65;;
20844;SDS011;10583;49.084;8.646;2022-07-29T13:15:11;2.63;;;2.63;;
20844;SDS011;10583;49.084;8.646;2022-07-29T13:17:39;2.60;;;2.60;;
20844;SDS011;10583;49.084;8.646;2022-07-29T13:20:09;2.20;;;2.20;;
20844;SDS011;10583;49.084;8.646;2022-07-29T13:22:40;2.60;;;2.60;;
20844;SDS011;10583;49.084;8.646;2022-07-29T13:25:08;2.20;;;2.20;;
20844;SDS011;10583;49.084;8.646;2022-07-29T13:27:36;2.50;;;2.50;;
20844;SDS011;10583;49.084;8.646;2022-07-29T13:30:05;2.53;;;2.53;;
20844;SDS011;10583;49.084;8.646;2022-07-29T13:32:33;2.10;;;2.10;;
20844;SDS011;10583;49.084;8.646;2022-07-29T13:35:02;2.60;;;2.60;;
20844;SDS011;10583;49.084;8.646;2022-07-29T13:37:30;2.25;;;2.25;;
20844;SDS011;10583;49.084;8.646;2022-07-29T13:40:00;1.80;;;1.80;;
20844;SDS011;10583;49.084;8.646;2022-07-29T13:42:28;1.80;;;1.80;;
20844;SDS011;10583;49.084;8.646;2022-07-29T13:44:55;1.85;;;1.85;;
20844;SDS011;10583;49.084;8.646;2022-07-29T13:47:21;1.77;;;1.77;;
20844;SDS011;10583;49.084;8.646;2022-07-29T13:49:48;1.95;;;1.95;;
20844;SDS011;10583;49.084;8.646;2022-07-29T13:52:16;1.73;;;1.73;;
20844;SDS011;10583;49.084;8.646;2022-07-29T13:54:43;1.77;;;1.77;;
20844;SDS011;10583;49.084;8.646;2022-07-29T13:57:11;1.92;;;1.92;;
20844;SDS011;10583;49.084;8.646;2022-07-29T13:59:38;1.65;;;1.65;;
20844;SDS011;10583;49.084;8.646;2022-07-29T14:02:05;1.90;;;1.90;;
20844;SDS011;10583;49.084;8.646;2022-07-29T14:04:32;1.50;;;1.50;;
20844;SDS011;10583;49.084;8.646;2022-07-29T14:06:59;1.80;;;1.80;;
20844;SDS011;10583;49.084;8.646;2022-07-29T14:09:26;1.90;;;1.90;;
20844;SDS011;10583;49.084;8.646;2022-07-29T14:11:53;1.65;;;1.65;;
20844;SDS011;10583;49.084;8.646;2022-07-29T14:14:21;1.50;;;1.50;;
20844;SDS011;10583;49.084;8.646;2022-07-29T14:16:47;1.65;;;1.65;;
20844;SDS011;10583;49.084;8.646;2022-07-29T14:19:14;1.55;;;1.55;;
20844;SDS011;10583;49.084;8.646;2022-07-29T14:21:41;1.20;;;1.20;;
20844;SDS011;10583;49.084;8.646;2022-07-29T14:24:08;1.30;;;1.30;;
20844;SDS011;10583;49.084;8.646;2022-07-29T14:26:34;2.00;;;2.00;;
20844;SDS011;10583;49.084;8.646;2022-07-29T14:29:01;1.48;;;1.48;;
20844;SDS011;10583;49.084;8.646;2022-07-29T14:31:29;1.20;;;1.20;;
20844;SDS011;10583;49.084;8.646;2022-07-29T14:33:56;1.52;;;1.52;;
20844;SDS011;10583;49.084;8.646;2022-07-29T14:36:23;1.20;;;1.20;;
20844;SDS011;10583;49.084;8.646;2022-07-29T14:38:50;1.65;;;1.65;;
20844;SDS011;10583;49.084;8.646;2022-07-29T14:41:16;1.40;;;1.40;;
20844;SDS011;10583;49.084;8.646;2022-07-29T14:43:43;1.40;;;1.40;;
20844;SDS011;10583;49.084;8.646;2022-07-29T14:46:09;1.40;;;1.40;;
20844;SDS011;10583;49.084;8.646;2022-07-29T14:48:37;1.50;;;1.50;;
20844;SDS011;10583;49.084;8.646;2022-07-29T14:51:04;1.40;;;1.40;;
20844;SDS011;10583;49.084;8.646;2022-07-29T14:53:31;1.77;;;1.77;;
20844;SDS011;10583;49.084;8.646;2022-07-29T14:55:58;1.48;;;1.48;;
20844;SDS011;10583;49.084;8.646;2022-07-29T14:58:24;1.60;;;1.60;;
20844;SDS011;10583;49.084;8.646;2022-07-29T15:00:51;1.80;;;1.80;;
20844;SDS011;10583;49.084;8.646;2022-07-29T15:03:19;1.58;;;1.58;;
20844;SDS011;10583;49.084;8.646;2022-07-29T15:05:47;1.65;;;1.65;;
20844;SDS011;10583;49.084;8.646;2022-07-29T15:08:14;1.40;;;1.40;;
20844;SDS011;10583;49.084;8.646;2022-07-29T15:10:40;1.63;;;1.63;;
20844;SDS011;10583;49.084;8.646;2022-07-29T15:13:07;1.50;;;1.50;;
20844;SDS011;10583;49.084;8.646;2022-07-29T15:15:34;1.50;;;1.50;;
20844;SDS011;10583;49.084;8.646;2022-07-29T15:18:00;1.30;;;1.30;;
20844;SDS011;10583;49.084;8.646;2022-07-29T15:20:27;1.20;;;1.20;;